createdAt,value
2022-12-12T00:00:23.520Z,100.34
2022-12-12T00:01:32.682Z,101.31
2022-12-12T00:02:40.883Z,99.6
2022-12-12T00:03:49.115Z,100.09
2022-12-12T00:04:58.258Z,99.85
2022-12-12T00:06:06.441Z,101.07
2022-12-12T00:07:14.630Z,100.58
2022-12-12T00:08:23.828Z,97.9
2022-12-12T00:09:31.995Z,98.38
2022-12-12T00:10:40.190Z,100.34
2022-12-12T00:11:49.359Z,100.58
2022-12-12T00:12:58.539Z,98.14
2022-12-12T00:14:07.706Z,100.09
2022-12-12T00:15:16.933Z,97.41
2022-12-12T00:16:26.053Z,103.75
2022-12-12T00:17:35.227Z,99.85
2022-12-12T00:18:44.403Z,99.12
2022-12-12T00:19:53.590Z,99.12
2022-12-12T00:21:02.747Z,99.85
2022-12-12T00:22:11.917Z,100.34
2022-12-12T00:23:21.088Z,99.85
2022-12-12T00:24:30.269Z,97.16
2022-12-12T00:25:38.450Z,99.85
2022-12-12T00:26:47.626Z,98.38
2022-12-12T00:27:56.854Z,98.14
2022-12-12T00:29:05.975Z,99.6
2022-12-12T00:30:15.143Z,96.92
2022-12-12T00:31:24.325Z,98.87
2022-12-12T00:32:33.488Z,99.85
2022-12-12T00:33:41.690Z,97.41
2022-12-12T00:34:49.874Z,99.85
2022-12-12T00:35:58.066Z,98.14
2022-12-12T00:37:06.261Z,98.14
2022-12-12T00:38:15.425Z,97.65
2022-12-12T00:39:24.619Z,98.38
2022-12-12T00:40:33.784Z,97.65
2022-12-12T00:41:42.951Z,94.97
2022-12-12T00:42:52.292Z,94.72
2022-12-12T00:44:01.375Z,92.77
2022-12-12T00:45:10.515Z,94.72
2022-12-12T00:46:19.656Z,94.23
2022-12-12T00:47:28.819Z,93.5
2022-12-12T00:48:37.993Z,93.75
2022-12-12T00:49:47.166Z,96.92
2022-12-12T00:50:56.332Z,92.52
2022-12-12T00:52:04.529Z,95.45
2022-12-12T00:53:13.698Z,92.77
2022-12-12T00:54:22.869Z,91.55
2022-12-12T00:55:32.049Z,90.82
2022-12-12T00:56:41.233Z,90.57
2022-12-12T00:57:50.390Z,91.3
2022-12-12T00:58:59.559Z,90.82
2022-12-12T01:00:07.765Z,90.08
2022-12-12T01:01:15.951Z,91.06
2022-12-12T01:02:25.132Z,91.3
2022-12-12T01:03:33.315Z,91.3
2022-12-12T01:04:41.509Z,90.08
2022-12-12T01:05:50.675Z,89.84
2022-12-12T01:06:59.849Z,88.37
2022-12-12T01:08:09.035Z,89.11
2022-12-12T01:09:18.194Z,92.52
2022-12-12T01:10:27.356Z,88.86
2022-12-12T01:11:36.544Z,88.37
2022-12-12T01:12:45.710Z,87.15
2022-12-12T01:13:54.883Z,88.62
2022-12-12T01:15:04.090Z,88.62
2022-12-12T01:16:13.235Z,86.18
2022-12-12T01:17:22.409Z,86.18
2022-12-12T01:18:30.606Z,89.35
2022-12-12T01:19:39.774Z,85.93
2022-12-12T01:20:48.951Z,85.93
2022-12-12T01:21:58.187Z,86.66
2022-12-12T01:23:07.306Z,85.69
2022-12-12T01:24:16.508Z,86.91
2022-12-12T01:25:25.658Z,85.44
2022-12-12T01:26:34.814Z,84.96
2022-12-12T01:27:43.991Z,84.96
2022-12-12T01:28:53.173Z,84.22
2022-12-12T01:30:01.353Z,86.66
2022-12-12T01:31:09.548Z,85.2
2022-12-12T01:32:18.724Z,84.47
2022-12-12T01:33:27.888Z,84.96
2022-12-12T01:34:36.106Z,85.44
2022-12-12T01:35:44.295Z,85.44
2022-12-12T01:36:53.454Z,86.18
2022-12-12T01:38:02.619Z,86.42
2022-12-12T01:39:11.789Z,89.84
2022-12-12T01:40:21.004Z,88.37
2022-12-12T01:41:30.146Z,88.86
2022-12-12T01:42:39.318Z,90.33
2022-12-12T01:43:48.502Z,90.08
2022-12-12T01:44:57.657Z,94.97
2022-12-12T01:46:06.829Z,95.21
2022-12-12T01:47:16.000Z,94.23
2022-12-12T01:48:25.189Z,94.72
2022-12-12T01:49:34.373Z,99.6
2022-12-12T01:50:43.526Z,96.92
2022-12-12T01:51:51.717Z,94.97
2022-12-12T01:53:00.893Z,97.9
2022-12-12T01:54:10.064Z,97.16
2022-12-12T01:55:19.240Z,98.63
2022-12-12T01:56:28.407Z,97.9
2022-12-12T01:57:37.579Z,100.58
2022-12-12T01:58:45.786Z,98.87
2022-12-12T01:59:53.967Z,100.83
2022-12-12T02:01:03.133Z,98.14
2022-12-12T02:02:12.327Z,101.31
2022-12-12T02:03:21.488Z,99.36
2022-12-12T02:04:29.691Z,99.85
2022-12-12T02:05:37.867Z,97.65
2022-12-12T02:06:47.046Z,97.41
2022-12-12T02:07:56.216Z,97.41
2022-12-12T02:09:05.389Z,97.9
2022-12-12T02:10:14.569Z,99.12
2022-12-12T02:11:23.732Z,98.63
2022-12-12T02:12:33.035Z,95.7
2022-12-12T02:13:42.078Z,96.43
2022-12-12T02:14:51.261Z,95.7
2022-12-12T02:16:00.437Z,99.6
2022-12-12T02:17:09.602Z,98.14
2022-12-12T02:18:18.789Z,94.72
2022-12-12T02:19:27.941Z,95.45
2022-12-12T02:20:36.135Z,94.48
2022-12-12T02:21:45.315Z,97.65
2022-12-12T02:22:54.496Z,93.01
2022-12-12T02:24:03.671Z,94.72
2022-12-12T02:25:12.834Z,93.01
2022-12-12T02:26:22.008Z,93.26
2022-12-12T02:27:31.176Z,92.52
2022-12-12T02:28:40.353Z,94.48
2022-12-12T02:29:49.571Z,93.26
2022-12-12T02:30:58.700Z,95.94
2022-12-12T02:32:07.865Z,92.52
2022-12-12T02:33:17.044Z,91.3
2022-12-12T02:34:26.234Z,90.82
2022-12-12T02:35:34.416Z,90.57
2022-12-12T02:36:43.579Z,89.84
2022-12-12T02:37:52.753Z,89.11
2022-12-12T02:39:01.927Z,88.86
2022-12-12T02:40:11.099Z,89.84
2022-12-12T02:41:20.268Z,86.91
2022-12-12T02:42:29.444Z,86.18
2022-12-12T02:43:38.609Z,85.44
2022-12-12T02:44:47.787Z,86.66
2022-12-12T02:45:56.974Z,85.93
2022-12-12T02:47:06.143Z,86.18
2022-12-12T02:48:15.311Z,85.44
2022-12-12T02:49:24.484Z,86.66
2022-12-12T02:50:32.672Z,85.93
2022-12-12T02:51:41.842Z,86.42
2022-12-12T02:52:50.031Z,85.44
2022-12-12T02:53:58.340Z,84.47
2022-12-12T02:55:06.433Z,86.66
2022-12-12T02:56:14.613Z,86.42
2022-12-12T02:57:23.833Z,87.89
2022-12-12T02:58:32.967Z,87.89
2022-12-12T02:59:42.137Z,87.15
2022-12-12T03:00:51.302Z,88.86
2022-12-12T03:02:00.480Z,85.69
2022-12-12T03:03:09.650Z,86.18
2022-12-12T03:04:18.827Z,85.44
2022-12-12T03:05:28.003Z,86.42
2022-12-12T03:06:37.173Z,85.93
2022-12-12T03:07:46.351Z,86.42
2022-12-12T03:08:55.518Z,85.93
2022-12-12T03:10:04.691Z,87.4
2022-12-12T03:11:12.887Z,86.18
2022-12-12T03:12:22.053Z,85.44
2022-12-12T03:13:31.231Z,85.93
2022-12-12T03:14:40.399Z,84.47
2022-12-12T03:15:49.623Z,83.74
2022-12-12T03:16:58.819Z,85.2
2022-12-12T03:18:07.948Z,84.71
2022-12-12T03:19:17.129Z,85.44
2022-12-12T03:20:26.304Z,85.2
2022-12-12T03:21:35.489Z,83.98
2022-12-12T03:22:44.651Z,83.98
2022-12-12T03:23:53.815Z,84.22
2022-12-12T03:25:02.995Z,83.74
2022-12-12T03:26:11.186Z,83.74
2022-12-12T03:28:29.538Z,83.49
2022-12-12T03:29:38.699Z,83.74
2022-12-12T03:30:47.879Z,83.74
2022-12-12T03:31:57.051Z,83.98
2022-12-12T03:33:06.221Z,82.51
2022-12-12T03:34:15.398Z,85.93
2022-12-12T03:35:24.574Z,83.74
2022-12-12T03:36:33.749Z,83.98
2022-12-12T03:37:42.920Z,85.44
2022-12-12T03:38:52.107Z,83.74
2022-12-12T03:40:01.257Z,82.51
2022-12-12T03:41:09.456Z,82.03
2022-12-12T03:42:18.652Z,83.74
2022-12-12T03:43:27.793Z,83.98
2022-12-12T03:44:36.971Z,85.2
2022-12-12T03:45:46.135Z,87.15
2022-12-12T03:46:55.321Z,87.64
2022-12-12T03:48:04.477Z,90.08
2022-12-12T03:49:12.690Z,94.72
2022-12-12T03:50:20.870Z,93.75
2022-12-12T03:51:30.146Z,93.99
2022-12-12T03:52:39.273Z,94.48
2022-12-12T03:53:47.497Z,92.28
2022-12-12T03:54:55.602Z,94.48
2022-12-12T03:56:04.781Z,95.7
2022-12-12T03:57:13.942Z,96.43
2022-12-12T03:58:23.120Z,96.92
2022-12-12T03:59:32.313Z,95.45
2022-12-12T04:00:41.565Z,98.63
2022-12-12T04:01:50.715Z,99.6
2022-12-12T04:02:59.862Z,95.94
2022-12-12T04:04:08.983Z,98.38
2022-12-12T04:05:18.184Z,98.63
2022-12-12T04:06:27.347Z,98.63
2022-12-12T04:07:36.505Z,97.41
2022-12-12T04:08:45.725Z,98.14
2022-12-12T04:09:53.868Z,97.41
2022-12-12T04:11:03.068Z,96.67
2022-12-12T04:12:12.217Z,96.19
2022-12-12T04:13:21.452Z,98.87
2022-12-12T04:14:30.564Z,95.45
2022-12-12T04:15:39.741Z,94.23
2022-12-12T04:16:48.911Z,97.16
2022-12-12T04:17:58.086Z,99.85
2022-12-12T04:19:07.266Z,98.14
2022-12-12T04:20:16.433Z,95.7
2022-12-12T04:21:25.636Z,93.26
2022-12-12T04:22:34.778Z,95.45
2022-12-12T04:23:43.996Z,94.97
2022-12-12T04:24:52.143Z,93.01
2022-12-12T04:26:01.304Z,95.94
2022-12-12T04:27:10.550Z,94.23
2022-12-12T04:28:19.686Z,93.99
2022-12-12T04:29:28.860Z,92.28
2022-12-12T04:30:38.054Z,91.55
2022-12-12T04:31:47.217Z,92.28
2022-12-12T04:32:56.383Z,89.35
2022-12-12T04:34:05.553Z,90.57
2022-12-12T04:35:13.744Z,87.4
2022-12-12T04:36:21.934Z,87.64
2022-12-12T04:37:31.115Z,88.37
2022-12-12T04:38:39.300Z,87.64
2022-12-12T04:39:47.507Z,88.13
2022-12-12T04:40:56.667Z,89.11
2022-12-12T04:42:05.841Z,87.64
2022-12-12T04:43:15.021Z,86.91
2022-12-12T04:44:24.193Z,88.37
2022-12-12T04:45:33.380Z,88.62
2022-12-12T04:46:42.533Z,88.62
2022-12-12T04:47:51.704Z,86.66
2022-12-12T04:49:00.908Z,87.64
2022-12-12T04:50:10.059Z,89.59
2022-12-12T04:51:19.226Z,86.91
2022-12-12T04:52:28.437Z,87.15
2022-12-12T04:53:37.740Z,93.5
2022-12-12T04:54:45.776Z,89.84
2022-12-12T04:55:54.932Z,87.4
2022-12-12T04:57:04.107Z,86.91
2022-12-12T04:58:13.280Z,87.89
2022-12-12T04:59:22.453Z,85.93
2022-12-12T05:00:31.623Z,86.42
2022-12-12T05:01:40.802Z,86.18
2022-12-12T05:02:48.994Z,85.44
2022-12-12T05:03:57.183Z,85.2
2022-12-12T05:05:06.366Z,85.93
2022-12-12T05:06:14.546Z,87.4
2022-12-12T05:07:22.738Z,85.93
2022-12-12T05:08:31.966Z,84.96
2022-12-12T05:09:40.106Z,83.74
2022-12-12T05:10:49.268Z,83.25
2022-12-12T05:11:58.521Z,84.47
2022-12-12T05:13:07.630Z,89.84
2022-12-12T05:14:16.801Z,85.93
2022-12-12T05:15:25.981Z,81.54
2022-12-12T05:16:35.143Z,83.74
2022-12-12T05:17:44.309Z,83.25
2022-12-12T05:18:53.532Z,83.25
2022-12-12T05:20:02.670Z,83.49
2022-12-12T05:21:11.909Z,89.35
2022-12-12T05:22:21.010Z,84.96
2022-12-12T05:24:39.355Z,81.29
2022-12-12T05:25:47.653Z,80.07
2022-12-12T05:26:56.739Z,80.56
2022-12-12T05:28:05.894Z,81.29
2022-12-12T05:29:15.113Z,81.78
2022-12-12T05:30:24.296Z,83.25
2022-12-12T05:31:33.420Z,81.54
2022-12-12T05:32:42.580Z,85.2
2022-12-12T05:33:51.766Z,81.05
2022-12-12T05:35:01.016Z,81.54
2022-12-12T05:36:10.106Z,80.56
2022-12-12T05:37:19.285Z,85.44
2022-12-12T05:38:28.466Z,82.27
2022-12-12T05:39:37.658Z,83.25
2022-12-12T05:40:45.809Z,83
2022-12-12T05:41:54.979Z,83.25
2022-12-12T05:43:04.174Z,82.27
2022-12-12T05:44:13.353Z,82.03
2022-12-12T05:45:22.511Z,83
2022-12-12T05:46:31.663Z,82.27
2022-12-12T05:47:40.861Z,95.7
2022-12-12T05:49:59.349Z,87.89
2022-12-12T05:51:08.385Z,87.64
2022-12-12T05:52:17.578Z,88.86
2022-12-12T05:53:26.711Z,91.79
2022-12-12T05:54:35.900Z,93.75
2022-12-12T05:55:44.158Z,92.28
2022-12-12T05:56:53.269Z,92.28
2022-12-12T05:58:02.423Z,97.41
2022-12-12T05:59:11.616Z,95.21
2022-12-12T06:00:20.776Z,93.01
2022-12-12T06:01:29.940Z,94.97
2022-12-12T06:02:39.121Z,94.97
2022-12-12T06:03:48.294Z,95.7
2022-12-12T06:04:57.461Z,104.49
2022-12-12T06:06:06.649Z,95.45
2022-12-12T06:07:15.804Z,95.45
2022-12-12T06:09:34.170Z,96.92
2022-12-12T06:10:42.344Z,96.43
2022-12-12T06:11:51.516Z,94.97
2022-12-12T06:13:00.690Z,96.19
2022-12-12T06:14:09.919Z,98.38
2022-12-12T06:15:19.062Z,99.6
2022-12-12T06:16:28.279Z,97.65
2022-12-12T06:17:37.370Z,101.07
2022-12-12T06:18:45.596Z,97.41
2022-12-12T06:19:53.773Z,97.9
2022-12-12T06:21:02.955Z,97.41
2022-12-12T06:22:12.120Z,101.07
2022-12-12T06:23:20.359Z,96.67
2022-12-12T06:24:28.490Z,100.09
2022-12-12T06:25:37.687Z,96.43
2022-12-12T06:26:46.837Z,98.14
2022-12-12T06:27:56.036Z,96.92
2022-12-12T06:29:05.232Z,118.4
2022-12-12T06:30:14.399Z,99.12
2022-12-12T06:31:23.527Z,98.38
2022-12-12T06:32:32.711Z,103.51
2022-12-12T06:33:41.888Z,98.87
2022-12-12T06:34:51.055Z,100.34
2022-12-12T06:36:00.236Z,97.9
2022-12-12T06:37:09.401Z,96.67
2022-12-12T06:39:27.805Z,105.71
2022-12-12T06:40:35.944Z,99.85
2022-12-12T06:41:45.203Z,100.09
2022-12-12T06:44:03.462Z,122.55
2022-12-12T06:45:11.690Z,97.65
2022-12-12T06:46:19.829Z,100.09
2022-12-12T06:47:29.008Z,107.17
2022-12-12T06:48:38.188Z,99.6
2022-12-12T06:49:47.393Z,100.09
2022-12-12T06:50:56.522Z,99.12
2022-12-12T06:52:05.717Z,97.41
2022-12-12T06:53:14.879Z,104.24
2022-12-12T06:54:24.058Z,99.36
2022-12-12T06:55:33.285Z,99.12
2022-12-12T06:56:42.429Z,101.31
2022-12-12T06:57:50.586Z,101.8
2022-12-12T06:58:58.781Z,104
2022-12-12T07:00:08.049Z,101.56
2022-12-12T07:01:17.123Z,101.31
2022-12-12T07:02:26.293Z,100.34
2022-12-12T07:03:35.477Z,101.31
2022-12-12T07:04:44.650Z,99.85
2022-12-12T07:05:53.816Z,100.58
2022-12-12T07:07:03.008Z,99.85
2022-12-12T07:08:12.163Z,99.6
2022-12-12T07:09:21.346Z,103.27
2022-12-12T07:10:30.511Z,104.24
2022-12-12T07:11:39.684Z,101.31
2022-12-12T07:12:48.863Z,99.6
2022-12-12T07:13:57.084Z,100.83
2022-12-12T07:15:06.211Z,98.63
2022-12-12T07:16:15.383Z,98.63
2022-12-12T07:18:33.750Z,100.34
2022-12-12T07:19:42.945Z,97.9
2022-12-12T07:20:52.074Z,98.63
2022-12-12T07:22:01.257Z,95.94
2022-12-12T07:23:09.455Z,98.87
2022-12-12T07:24:17.658Z,97.41
2022-12-12T07:25:26.827Z,100.09
2022-12-12T07:26:35.010Z,99.12
2022-12-12T07:27:43.197Z,97.41
2022-12-12T07:28:52.447Z,97.9
2022-12-12T07:30:01.557Z,99.85
2022-12-12T07:31:10.708Z,124.26
2022-12-12T07:32:19.890Z,100.58
2022-12-12T07:33:29.065Z,99.6
2022-12-12T07:34:38.285Z,99.36
2022-12-12T07:35:47.459Z,99.85
2022-12-12T07:36:56.583Z,100.34
2022-12-12T07:38:05.756Z,101.07
2022-12-12T07:39:14.928Z,102.53
2022-12-12T07:40:24.164Z,100.34
2022-12-12T07:41:33.276Z,98.14
2022-12-12T07:42:41.463Z,101.07
2022-12-12T07:43:50.643Z,100.58
2022-12-12T07:44:59.811Z,101.07
2022-12-12T07:46:09.129Z,101.8
2022-12-12T07:47:18.195Z,99.12
2022-12-12T07:48:27.422Z,101.07
2022-12-12T07:49:36.655Z,106.44
2022-12-12T07:50:45.672Z,103.27
2022-12-12T07:51:54.875Z,100.58
2022-12-12T07:53:04.023Z,101.8
2022-12-12T07:54:13.260Z,101.07
2022-12-12T07:55:22.464Z,103.75
2022-12-12T07:56:31.561Z,104
2022-12-12T07:57:39.730Z,99.85
2022-12-12T07:58:49.062Z,101.8
2022-12-12T07:59:58.076Z,101.07
2022-12-12T08:01:07.252Z,103.27
2022-12-12T08:02:16.423Z,106.44
2022-12-12T08:03:24.623Z,109.86
2022-12-12T08:04:32.807Z,110.59
2022-12-12T08:05:41.057Z,108.15
2022-12-12T08:06:49.197Z,108.64
2022-12-12T08:07:58.399Z,106.2
2022-12-12T08:09:07.578Z,109.13
2022-12-12T08:10:16.874Z,106.44
2022-12-12T08:11:25.907Z,104.24
2022-12-12T08:12:35.178Z,103.27
2022-12-12T08:13:44.225Z,102.78
2022-12-12T08:14:53.407Z,112.79
2022-12-12T08:16:02.575Z,103.27
2022-12-12T08:17:11.944Z,100.34
2022-12-12T08:18:21.001Z,102.29
2022-12-12T08:19:30.101Z,103.51
2022-12-12T08:20:39.260Z,101.56
2022-12-12T08:21:47.462Z,107.42
2022-12-12T08:22:56.629Z,109.61
2022-12-12T08:24:05.830Z,103.27
2022-12-12T08:25:14.980Z,104.24
2022-12-12T08:26:24.170Z,104
2022-12-12T08:27:33.326Z,104.49
2022-12-12T08:28:42.498Z,105.95
2022-12-12T08:29:50.770Z,105.22
2022-12-12T08:30:59.856Z,104.49
2022-12-12T08:32:08.065Z,106.2
2022-12-12T08:33:16.325Z,106.93
2022-12-12T08:34:25.429Z,105.95
2022-12-12T08:35:34.601Z,108.39
2022-12-12T08:36:43.769Z,107.66
2022-12-12T08:37:52.943Z,108.39
2022-12-12T08:39:02.130Z,109.86
2022-12-12T08:40:11.293Z,107.42
2022-12-12T08:41:20.464Z,107.91
2022-12-12T08:42:29.693Z,110.59
2022-12-12T08:43:38.806Z,107.91
2022-12-12T08:44:47.973Z,109.61
2022-12-12T08:45:57.151Z,107.91
2022-12-12T08:47:06.326Z,106.68
2022-12-12T08:48:15.500Z,107.66
2022-12-12T08:49:23.690Z,107.17
2022-12-12T08:50:32.863Z,105.95
2022-12-12T08:52:51.203Z,106.44
2022-12-12T08:54:00.391Z,107.42
2022-12-12T08:55:09.624Z,107.66
2022-12-12T08:56:18.729Z,107.17
2022-12-12T08:57:26.922Z,107.91
2022-12-12T08:58:35.153Z,108.88
2022-12-12T08:59:44.307Z,106.68
2022-12-12T09:00:52.511Z,106.68
2022-12-12T09:02:01.652Z,113.52
2022-12-12T09:03:10.828Z,108.88
2022-12-12T09:04:19.025Z,107.66
2022-12-12T09:05:28.191Z,108.15
2022-12-12T09:06:36.409Z,107.66
2022-12-12T09:07:45.557Z,109.13
2022-12-12T09:08:54.738Z,112.06
2022-12-12T09:10:03.906Z,109.86
2022-12-12T09:11:13.082Z,107.66
2022-12-12T09:12:22.273Z,108.88
2022-12-12T09:13:31.429Z,107.42
2022-12-12T09:14:40.597Z,109.86
2022-12-12T09:15:49.768Z,112.06
2022-12-12T09:16:58.939Z,107.17
2022-12-12T09:18:08.120Z,106.93
2022-12-12T09:19:17.305Z,110.59
2022-12-12T09:20:26.491Z,106.93
2022-12-12T09:21:34.735Z,108.88
2022-12-12T09:22:43.829Z,107.91
2022-12-12T09:23:53.000Z,107.42
2022-12-12T09:25:02.227Z,107.66
2022-12-12T09:26:11.411Z,108.39
2022-12-12T09:27:20.521Z,106.68
2022-12-12T09:28:28.804Z,108.15
2022-12-12T09:29:36.909Z,109.13
2022-12-12T09:30:46.078Z,107.42
2022-12-12T09:31:55.256Z,108.64
2022-12-12T09:33:03.447Z,108.64
2022-12-12T09:34:11.671Z,129.88
2022-12-12T09:35:20.807Z,106.68
2022-12-12T09:36:29.982Z,107.17
2022-12-12T09:37:39.153Z,108.15
2022-12-12T09:38:48.323Z,110.59
2022-12-12T09:39:57.506Z,105.95
2022-12-12T09:41:06.672Z,109.86
2022-12-12T09:42:15.843Z,107.66
2022-12-12T09:43:25.013Z,106.68
2022-12-12T09:44:34.276Z,108.64
2022-12-12T09:45:43.373Z,107.17
2022-12-12T09:46:52.550Z,108.64
2022-12-12T09:48:01.735Z,107.91
2022-12-12T09:49:09.898Z,108.88
2022-12-12T09:50:19.079Z,109.61
2022-12-12T09:51:28.274Z,118.16
2022-12-12T09:52:37.424Z,109.13
2022-12-12T09:53:46.621Z,107.42
2022-12-12T09:54:55.773Z,107.91
2022-12-12T09:56:04.950Z,108.15
2022-12-12T09:57:13.138Z,110.1
2022-12-12T09:58:21.327Z,110.1
2022-12-12T09:59:29.525Z,109.13
2022-12-12T10:00:37.708Z,108.39
2022-12-12T10:01:46.890Z,108.64
2022-12-12T10:02:56.055Z,110.1
2022-12-12T10:04:05.237Z,112.54
2022-12-12T10:05:14.407Z,117.18
2022-12-12T10:06:23.590Z,108.88
2022-12-12T10:07:32.749Z,129.39
2022-12-12T10:08:41.999Z,107.42
2022-12-12T10:09:51.131Z,107.17
2022-12-12T10:11:00.347Z,107.91
2022-12-12T10:12:09.478Z,108.88
2022-12-12T10:13:18.626Z,104.73
2022-12-12T10:14:27.807Z,105.71
2022-12-12T10:15:36.009Z,105.22
2022-12-12T10:16:45.156Z,101.8
2022-12-12T10:17:54.329Z,105.22
2022-12-12T10:19:03.498Z,110.83
2022-12-12T10:20:12.687Z,124.51
2022-12-12T10:21:21.840Z,109.37
2022-12-12T10:22:31.021Z,101.56
2022-12-12T10:23:39.209Z,106.68
2022-12-12T10:24:47.404Z,104.24
2022-12-12T10:25:55.591Z,103.51
2022-12-12T10:27:03.779Z,100.58
2022-12-12T10:28:12.964Z,103.02
2022-12-12T10:29:22.257Z,107.91
2022-12-12T10:30:31.314Z,104
2022-12-12T10:31:40.482Z,104.24
2022-12-12T10:32:49.655Z,104.73
2022-12-12T10:33:58.833Z,110.59
2022-12-12T10:35:08.042Z,105.95
2022-12-12T10:36:17.164Z,105.71
2022-12-12T10:37:26.346Z,106.44
2022-12-12T10:38:35.515Z,107.17
2022-12-12T10:39:44.799Z,109.13
2022-12-12T10:40:53.874Z,109.13
2022-12-12T10:42:02.060Z,112.3
2022-12-12T10:43:11.222Z,107.42
2022-12-12T10:44:20.398Z,109.13
2022-12-12T10:45:29.564Z,107.42
2022-12-12T10:46:38.803Z,111.32
2022-12-12T10:47:47.960Z,109.61
2022-12-12T10:48:57.090Z,109.86
2022-12-12T10:50:06.256Z,111.32
2022-12-12T10:51:15.437Z,108.15
2022-12-12T10:52:24.604Z,108.15
2022-12-12T10:53:33.784Z,108.88
2022-12-12T10:54:42.958Z,112.79
2022-12-12T10:57:01.304Z,119.14
2022-12-12T10:58:09.589Z,117.91
2022-12-12T10:59:17.683Z,109.86
2022-12-12T11:00:26.854Z,107.91
2022-12-12T11:01:35.057Z,108.39
2022-12-12T11:02:43.240Z,109.37
2022-12-12T11:03:52.420Z,110.1
2022-12-12T11:05:01.578Z,109.61
2022-12-12T11:06:10.791Z,109.37
2022-12-12T11:07:19.945Z,109.37
2022-12-12T11:08:29.159Z,108.88
2022-12-12T11:09:38.279Z,109.86
2022-12-12T11:10:47.451Z,109.37
2022-12-12T11:11:56.625Z,112.06
2022-12-12T11:13:05.794Z,110.59
2022-12-12T11:14:14.998Z,113.76
2022-12-12T11:15:24.153Z,111.08
2022-12-12T11:16:33.316Z,110.35
2022-12-12T11:17:41.513Z,111.32
2022-12-12T11:18:50.674Z,110.59
2022-12-12T11:19:59.856Z,108.88
2022-12-12T11:21:09.025Z,111.08
2022-12-12T11:22:18.321Z,109.13
2022-12-12T11:23:27.374Z,109.13
2022-12-12T11:24:36.547Z,110.59
2022-12-12T11:25:44.735Z,111.81
2022-12-12T11:26:52.930Z,119.62
2022-12-12T11:28:01.124Z,109.61
2022-12-12T11:29:09.315Z,108.88
2022-12-12T11:30:18.488Z,109.37
2022-12-12T11:31:27.664Z,108.39
2022-12-12T11:32:36.829Z,109.37
2022-12-12T11:33:45.998Z,109.37
2022-12-12T11:34:55.184Z,108.39
2022-12-12T11:36:04.438Z,109.86
2022-12-12T11:37:13.529Z,109.13
2022-12-12T11:38:22.692Z,108.64
2022-12-12T11:39:31.872Z,108.88
2022-12-12T11:40:41.046Z,107.42
2022-12-12T11:41:50.236Z,107.17
2022-12-12T11:42:59.388Z,107.91
2022-12-12T11:44:07.576Z,105.71
2022-12-12T11:45:16.761Z,107.17
2022-12-12T11:46:25.941Z,104.73
2022-12-12T11:47:35.105Z,106.2
2022-12-12T11:48:44.299Z,101.8
2022-12-12T11:49:53.430Z,102.05
2022-12-12T11:51:02.722Z,105.71
2022-12-12T11:52:11.788Z,104
2022-12-12T11:53:21.038Z,101.8
2022-12-12T11:54:30.131Z,101.8
2022-12-12T11:55:39.393Z,99.6
2022-12-12T11:56:48.584Z,100.83
2022-12-12T11:57:57.731Z,110.35
2022-12-12T11:59:05.891Z,104.73
2022-12-12T12:00:15.154Z,98.87
2022-12-12T12:01:24.264Z,96.43
2022-12-12T12:02:33.477Z,97.65
2022-12-12T12:03:42.547Z,98.14
2022-12-12T12:04:51.717Z,104.73
2022-12-12T12:06:00.876Z,98.63
2022-12-12T12:07:10.077Z,98.38
2022-12-12T12:08:18.244Z,121.33
2022-12-12T12:09:26.466Z,128.9
2022-12-12T12:10:34.627Z,102.53
2022-12-12T12:11:42.829Z,101.8
2022-12-12T12:12:51.990Z,103.02
2022-12-12T12:14:01.217Z,104.73
2022-12-12T12:15:10.413Z,125.97
2022-12-12T12:16:19.522Z,105.46
2022-12-12T12:17:28.687Z,107.66
2022-12-12T12:18:37.866Z,107.42
2022-12-12T12:19:47.026Z,108.39
2022-12-12T12:20:56.210Z,109.13
2022-12-12T12:22:05.375Z,109.13
2022-12-12T12:23:14.546Z,108.88
2022-12-12T12:24:23.715Z,109.37
2022-12-12T12:25:32.952Z,106.93
2022-12-12T12:26:41.098Z,108.88
2022-12-12T12:27:50.263Z,119.14
2022-12-12T12:28:59.425Z,110.35
2022-12-12T12:30:08.617Z,127.92
2022-12-12T12:31:17.771Z,110.59
2022-12-12T12:32:26.944Z,109.86
2022-12-12T12:33:36.264Z,108.64
2022-12-12T12:34:44.363Z,109.86
2022-12-12T12:35:52.508Z,109.13
2022-12-12T12:37:01.680Z,108.64
2022-12-12T12:38:10.864Z,108.64
2022-12-12T12:39:20.036Z,114.25
2022-12-12T12:40:28.217Z,113.28
2022-12-12T12:41:36.419Z,112.06
2022-12-12T12:42:45.578Z,111.08
2022-12-12T12:43:54.842Z,108.39
2022-12-12T12:45:03.941Z,108.15
2022-12-12T12:46:13.118Z,108.39
2022-12-12T12:47:22.272Z,105.95
2022-12-12T12:48:31.460Z,105.22
2022-12-12T12:49:40.611Z,105.46
2022-12-12T12:50:49.794Z,105.95
2022-12-12T12:51:58.038Z,102.53
2022-12-12T12:53:07.179Z,104.98
2022-12-12T12:54:16.330Z,102.53
2022-12-12T12:55:25.518Z,101.07
2022-12-12T12:56:34.676Z,102.29
2022-12-12T12:57:43.846Z,104.24
2022-12-12T12:58:53.017Z,98.63
2022-12-12T13:00:02.189Z,98.38
2022-12-12T13:01:11.395Z,97.9
2022-12-12T13:02:20.542Z,97.16
2022-12-12T13:03:29.716Z,99.85
2022-12-12T13:04:37.921Z,96.92
2022-12-12T13:05:46.219Z,105.22
2022-12-12T13:06:55.282Z,96.92
2022-12-12T13:08:04.443Z,97.41
2022-12-12T13:09:13.743Z,97.16
2022-12-12T13:10:22.861Z,119.87
2022-12-12T13:11:32.093Z,98.14
2022-12-12T13:12:40.201Z,100.58
2022-12-12T13:13:48.426Z,100.83
2022-12-12T13:14:57.538Z,104
2022-12-12T13:16:06.718Z,101.8
2022-12-12T13:17:15.896Z,104
2022-12-12T13:18:25.057Z,103.51
2022-12-12T13:19:34.211Z,105.22
2022-12-12T13:20:43.414Z,104.98
2022-12-12T13:21:52.555Z,104.24
2022-12-12T13:23:01.731Z,106.44
2022-12-12T13:24:10.905Z,105.71
2022-12-12T13:25:20.080Z,105.22
2022-12-12T13:26:29.259Z,106.44
2022-12-12T13:27:38.418Z,106.93
2022-12-12T13:28:46.681Z,107.17
2022-12-12T13:29:55.795Z,104.73
2022-12-12T13:31:04.953Z,105.95
2022-12-12T13:32:14.127Z,108.88
2022-12-12T13:33:23.310Z,113.28
2022-12-12T13:34:32.480Z,107.17
2022-12-12T13:35:41.652Z,107.42
2022-12-12T13:36:49.842Z,105.46
2022-12-12T13:37:58.047Z,105.95
2022-12-12T13:39:07.204Z,106.68
2022-12-12T13:40:16.469Z,108.88
2022-12-12T13:41:25.598Z,106.44
2022-12-12T13:42:33.806Z,106.68
2022-12-12T13:43:41.945Z,106.68
2022-12-12T13:44:51.186Z,105.46
2022-12-12T13:46:00.272Z,104.49
2022-12-12T13:47:09.456Z,107.17
2022-12-12T13:48:18.624Z,106.68
2022-12-12T13:49:27.805Z,107.91
2022-12-12T13:50:36.993Z,115.96
2022-12-12T13:51:46.154Z,106.68
2022-12-12T13:52:55.369Z,105.95
2022-12-12T13:54:04.487Z,107.42
2022-12-12T13:55:13.676Z,107.17
2022-12-12T13:56:22.837Z,106.2
2022-12-12T13:57:32.027Z,105.95
2022-12-12T13:58:40.195Z,107.66
2022-12-12T13:59:49.367Z,106.2
2022-12-12T14:00:58.586Z,106.93
2022-12-12T14:02:07.711Z,105.71
2022-12-12T14:03:16.980Z,106.68
2022-12-12T14:04:26.083Z,107.91
2022-12-12T14:05:35.257Z,107.17
2022-12-12T14:06:44.427Z,106.68
2022-12-12T14:07:53.604Z,107.66
2022-12-12T14:09:02.753Z,107.17
2022-12-12T14:10:11.928Z,106.2
2022-12-12T14:11:21.094Z,107.17
2022-12-12T14:12:30.290Z,108.39
2022-12-12T14:13:39.458Z,108.88
2022-12-12T14:14:48.622Z,108.39
2022-12-12T14:15:57.796Z,108.15
2022-12-12T14:17:06.978Z,107.91
2022-12-12T14:18:15.162Z,112.06
2022-12-12T14:19:24.331Z,108.39
2022-12-12T14:20:33.510Z,108.15
2022-12-12T14:21:42.676Z,108.64
2022-12-12T14:22:51.845Z,105.46
2022-12-12T14:24:01.037Z,106.68
2022-12-12T14:25:10.192Z,109.61
2022-12-12T14:26:19.374Z,107.17
2022-12-12T14:27:28.547Z,107.42
2022-12-12T14:28:37.739Z,107.42
2022-12-12T14:29:46.904Z,107.17
2022-12-12T14:30:56.086Z,107.91
2022-12-12T14:32:05.247Z,107.66
2022-12-12T14:33:13.419Z,109.61
2022-12-12T14:34:22.604Z,106.68
2022-12-12T14:35:31.765Z,106.68
2022-12-12T14:36:40.959Z,105.22
2022-12-12T14:37:50.125Z,105.95
2022-12-12T14:38:59.299Z,107.17
2022-12-12T14:40:07.591Z,104.24
2022-12-12T14:41:15.675Z,104.73
2022-12-12T14:42:24.845Z,105.22
2022-12-12T14:43:33.065Z,101.31
2022-12-12T14:44:41.296Z,104.73
2022-12-12T14:45:50.401Z,102.53
2022-12-12T14:46:59.578Z,102.29